Aviation Digital Data Service (ADDS)

Output produced by METARs form (1144 UTC 01 November 2014)
found at http://aviationweather.gov/adds/metars/
 
KMPV 011125Z 0112/0212 35005KT P6SM OVC050 
     FM011500 35009KT P6SM VCSH SCT025 OVC035 
     FM011800 35011KT P6SM -RA OVC025 
     FM012100 35011KT 5SM -RASN BR OVC020 
     FM020200 35011KT 2SM -SN BR OVC015 
     FM020700 35011KT 6SM -SN OVC015